sensor_id;sensor_type;location;lat;lon;timestamp;pressure;altitude;pressure_sealevel;temperature;humidity
7309;BME280;3695;53.330;9.876;2022-09-03T00:00:32;126822.22;;;15.08;100.00
7309;BME280;3695;53.330;9.876;2022-09-03T00:03:03;126930.91;;;15.10;100.00
7309;BME280;3695;53.330;9.876;2022-09-03T00:05:37;127052.75;;;15.14;100.00
7309;BME280;3695;53.330;9.876;2022-09-03T00:08:09;126043.03;;;14.85;100.00
7309;BME280;3695;53.330;9.876;2022-09-03T00:10:48;127163.53;;;15.17;100.00
7309;BME280;3695;53.330;9.876;2022-09-03T00:13:19;126955.00;;;15.11;100.00
7309;BME280;3695;53.330;9.876;2022-09-03T00:15:50;126544.31;;;15.00;100.00
7309;BME280;3695;53.330;9.876;2022-09-03T00:18:20;126110.78;;;14.89;100.00
7309;BME280;3695;53.330;9.876;2022-09-03T00:20:55;126112.84;;;14.90;100.00
7309;BME280;3695;53.330;9.876;2022-09-03T00:23:25;125581.63;;;14.78;100.00
7309;BME280;3695;53.330;9.876;2022-09-03T00:25:55;126165.44;;;14.91;100.00
7309;BME280;3695;53.330;9.876;2022-09-03T00:28:27;126016.28;;;14.88;100.00
7309;BME280;3695;53.330;9.876;2022-09-03T00:31:05;124533.69;;;14.52;100.00
7309;BME280;3695;53.330;9.876;2022-09-03T00:33:38;125108.69;;;14.69;100.00
7309;BME280;3695;53.330;9.876;2022-09-03T00:36:12;124684.00;;;14.57;100.00
7309;BME280;3695;53.330;9.876;2022-09-03T00:38:40;125124.50;;;14.70;100.00
7309;BME280;3695;53.330;9.876;2022-09-03T00:41:09;124759.16;;;14.58;100.00
7309;BME280;3695;53.330;9.876;2022-09-03T00:43:49;125022.81;;;14.66;100.00
7309;BME280;3695;53.330;9.876;2022-09-03T00:46:23;125558.97;;;14.79;100.00
7309;BME280;3695;53.330;9.876;2022-09-03T00:49:10;125156.06;;;14.68;100.00
7309;BME280;3695;53.330;9.876;2022-09-03T00:51:48;124492.50;;;14.52;100.00
7309;BME280;3695;53.330;9.876;2022-09-03T00:54:20;125004.28;;;14.65;100.00
7309;BME280;3695;53.330;9.876;2022-09-03T00:57:03;124189.56;;;14.43;100.00
7309;BME280;3695;53.330;9.876;2022-09-03T00:59:37;123342.91;;;14.24;100.00
7309;BME280;3695;53.330;9.876;2022-09-03T01:02:15;123524.22;;;14.29;100.00
7309;BME280;3695;53.330;9.876;2022-09-03T01:04:53;123990.53;;;14.41;100.00
7309;BME280;3695;53.330;9.876;2022-09-03T01:07:31;124506.56;;;14.54;100.00
7309;BME280;3695;53.330;9.876;2022-09-03T01:10:07;123823.88;;;14.36;100.00
7309;BME280;3695;53.330;9.876;2022-09-03T01:12:46;124118.53;;;14.41;100.00
7309;BME280;3695;53.330;9.876;2022-09-03T01:15:24;124013.53;;;14.42;100.00
7309;BME280;3695;53.330;9.876;2022-09-03T01:18:02;123077.28;;;14.17;100.00
7309;BME280;3695;53.330;9.876;2022-09-03T01:20:42;122479.09;;;14.06;100.00
7309;BME280;3695;53.330;9.876;2022-09-03T01:26:24;122370.84;;;14.04;100.00
7309;BME280;3695;53.330;9.876;2022-09-03T01:29:02;122173.63;;;14.00;100.00
7309;BME280;3695;53.330;9.876;2022-09-03T01:31:35;122863.75;;;14.14;100.00
7309;BME280;3695;53.330;9.876;2022-09-03T01:34:15;122080.56;;;13.96;100.00
7309;BME280;3695;53.330;9.876;2022-09-03T01:36:53;122367.38;;;14.05;100.00
7309;BME280;3695;53.330;9.876;2022-09-03T01:39:30;121191.41;;;13.78;100.00
7309;BME280;3695;53.330;9.876;2022-09-03T01:42:09;122011.31;;;13.97;100.00
7309;BME280;3695;53.330;9.876;2022-09-03T01:44:58;122039.72;;;13.97;100.00
7309;BME280;3695;53.330;9.876;2022-09-03T01:47:37;122323.22;;;14.03;100.00
7309;BME280;3695;53.330;9.876;2022-09-03T01:52:55;121659.56;;;13.86;100.00
7309;BME280;3695;53.330;9.876;2022-09-03T01:55:30;123066.97;;;14.20;100.00
7309;BME280;3695;53.330;9.876;2022-09-03T01:58:04;122417.47;;;14.04;100.00
7309;BME280;3695;53.330;9.876;2022-09-03T02:00:39;122139.44;;;13.98;100.00
7309;BME280;3695;53.330;9.876;2022-09-03T02:03:09;121787.19;;;13.90;100.00
7309;BME280;3695;53.330;9.876;2022-09-03T02:05:37;121795.88;;;13.88;100.00
7309;BME280;3695;53.330;9.876;2022-09-03T02:08:05;122189.78;;;13.98;100.00
7309;BME280;3695;53.330;9.876;2022-09-03T02:10:38;121554.16;;;13.84;100.00
7309;BME280;3695;53.330;9.876;2022-09-03T02:13:07;121033.94;;;13.71;100.00
7309;BME280;3695;53.330;9.876;2022-09-03T02:15:37;122230.47;;;14.01;100.00
7309;BME280;3695;53.330;9.876;2022-09-03T02:18:09;122298.00;;;14.00;100.00
7309;BME280;3695;53.330;9.876;2022-09-03T02:20:41;122601.75;;;14.07;100.00
7309;BME280;3695;53.330;9.876;2022-09-03T02:23:08;123114.31;;;14.19;100.00
7309;BME280;3695;53.330;9.876;2022-09-03T02:25:37;122282.00;;;13.98;100.00
7309;BME280;3695;53.330;9.876;2022-09-03T02:28:09;122451.81;;;14.02;100.00
7309;BME280;3695;53.330;9.876;2022-09-03T02:30:38;123366.59;;;14.23;100.00
7309;BME280;3695;53.330;9.876;2022-09-03T02:33:05;123380.00;;;14.22;100.00
7309;BME280;3695;53.330;9.876;2022-09-03T02:35:33;122398.59;;;13.96;100.00
7309;BME280;3695;53.330;9.876;2022-09-03T02:38:09;122198.63;;;13.92;100.00
7309;BME280;3695;53.330;9.876;2022-09-03T02:40:37;122261.94;;;13.93;100.00
7309;BME280;3695;53.330;9.876;2022-09-03T02:43:08;121635.56;;;13.80;100.00
7309;BME280;3695;53.330;9.876;2022-09-03T02:45:44;121665.72;;;13.80;100.00
7309;BME280;3695;53.330;9.876;2022-09-03T02:48:13;121707.09;;;13.81;100.00
7309;BME280;3695;53.330;9.876;2022-09-03T02:50:46;122154.75;;;13.92;100.00
7309;BME280;3695;53.330;9.876;2022-09-03T02:53:13;122017.88;;;13.88;100.00
7309;BME280;3695;53.330;9.876;2022-09-03T02:55:39;122132.84;;;13.92;100.00
7309;BME280;3695;53.330;9.876;2022-09-03T02:58:06;122329.31;;;13.97;100.00
7309;BME280;3695;53.330;9.876;2022-09-03T03:00:33;121237.66;;;13.71;100.00
7309;BME280;3695;53.330;9.876;2022-09-03T03:03:01;121999.69;;;13.88;100.00
7309;BME280;3695;53.330;9.876;2022-09-03T03:05:38;121568.53;;;13.78;100.00
7309;BME280;3695;53.330;9.876;2022-09-03T03:08:07;122103.41;;;13.91;100.00
7309;BME280;3695;53.330;9.876;2022-09-03T03:10:36;121381.16;;;13.72;100.00
7309;BME280;3695;53.330;9.876;2022-09-03T03:13:03;120592.97;;;13.54;100.00
7309;BME280;3695;53.330;9.876;2022-09-03T03:15:29;121869.31;;;13.84;100.00
7309;BME280;3695;53.330;9.876;2022-09-03T03:17:56;121466.38;;;13.73;100.00
7309;BME280;3695;53.330;9.876;2022-09-03T03:20:28;122040.81;;;13.88;100.00
7309;BME280;3695;53.330;9.876;2022-09-03T03:23:01;122027.56;;;13.85;100.00
7309;BME280;3695;53.330;9.876;2022-09-03T03:25:31;122433.94;;;13.94;100.00
7309;BME280;3695;53.330;9.876;2022-09-03T03:27:59;122104.31;;;13.85;100.00
7309;BME280;3695;53.330;9.876;2022-09-03T03:30:29;121764.81;;;13.77;100.00
7309;BME280;3695;53.330;9.876;2022-09-03T03:33:00;121508.19;;;13.72;100.00
7309;BME280;3695;53.330;9.876;2022-09-03T03:35:32;121209.97;;;13.64;100.00
7309;BME280;3695;53.330;9.876;2022-09-03T03:38:00;121603.34;;;13.73;100.00
7309;BME280;3695;53.330;9.876;2022-09-03T03:40:31;121609.84;;;13.74;100.00
7309;BME280;3695;53.330;9.876;2022-09-03T03:42:58;121814.88;;;13.76;100.00
7309;BME280;3695;53.330;9.876;2022-09-03T03:45:25;121551.47;;;13.69;100.00
7309;BME280;3695;53.330;9.876;2022-09-03T03:47:57;121549.00;;;13.71;100.00
7309;BME280;3695;53.330;9.876;2022-09-03T03:50:24;121197.75;;;13.62;100.00
7309;BME280;3695;53.330;9.876;2022-09-03T03:52:58;120750.56;;;13.52;100.00
7309;BME280;3695;53.330;9.876;2022-09-03T03:55:24;121078.72;;;13.60;100.00
7309;BME280;3695;53.330;9.876;2022-09-03T03:57:51;121013.00;;;13.60;100.00
7309;BME280;3695;53.330;9.876;2022-09-03T04:00:18;120696.53;;;13.51;100.00
7309;BME280;3695;53.330;9.876;2022-09-03T04:02:47;120228.41;;;13.40;100.00
7309;BME280;3695;53.330;9.876;2022-09-03T04:05:14;120507.13;;;13.48;100.00
7309;BME280;3695;53.330;9.876;2022-09-03T04:07:40;120860.59;;;13.55;100.00
7309;BME280;3695;53.330;9.876;2022-09-03T04:10:11;120329.94;;;13.41;100.00
7309;BME280;3695;53.330;9.876;2022-09-03T04:12:39;120382.19;;;13.43;100.00
7309;BME280;3695;53.330;9.876;2022-09-03T04:15:08;120581.06;;;13.48;100.00
7309;BME280;3695;53.330;9.876;2022-09-03T04:17:36;120387.91;;;13.44;100.00
7309;BME280;3695;53.330;9.876;2022-09-03T04:20:04;120736.63;;;13.50;100.00
7309;BME280;3695;53.330;9.876;2022-09-03T04:22:31;120626.59;;;13.47;100.00
7309;BME280;3695;53.330;9.876;2022-09-03T04:25:00;119861.78;;;13.29;100.00
7309;BME280;3695;53.330;9.876;2022-09-03T04:27:29;119976.66;;;13.34;100.00
7309;BME280;3695;53.330;9.876;2022-09-03T04:29:56;120187.88;;;13.37;100.00
7309;BME280;3695;53.330;9.876;2022-09-03T04:32:24;119485.75;;;13.21;100.00
7309;BME280;3695;53.330;9.876;2022-09-03T04:35:08;118826.09;;;13.05;100.00
7309;BME280;3695;53.330;9.876;2022-09-03T04:37:35;119046.72;;;13.12;100.00
7309;BME280;3695;53.330;9.876;2022-09-03T04:40:03;118464.31;;;12.99;100.00
7309;BME280;3695;53.330;9.876;2022-09-03T04:42:33;118245.00;;;12.95;100.00
7309;BME280;3695;53.330;9.876;2022-09-03T04:44:59;118376.81;;;12.99;100.00
7309;BME280;3695;53.330;9.876;2022-09-03T04:47:26;118240.53;;;12.95;100.00
7309;BME280;3695;53.330;9.876;2022-09-03T04:49:54;118310.81;;;12.96;100.00
7309;BME280;3695;53.330;9.876;2022-09-03T04:52:22;117145.22;;;12.70;100.00
7309;BME280;3695;53.330;9.876;2022-09-03T04:54:49;117183.47;;;12.70;100.00
7309;BME280;3695;53.330;9.876;2022-09-03T04:57:17;117231.41;;;12.75;100.00
7309;BME280;3695;53.330;9.876;2022-09-03T04:59:49;117379.31;;;12.78;100.00
7309;BME280;3695;53.330;9.876;2022-09-03T05:02:15;116825.13;;;12.65;100.00
7309;BME280;3695;53.330;9.876;2022-09-03T05:04:42;117102.81;;;12.73;100.00
7309;BME280;3695;53.330;9.876;2022-09-03T05:07:08;116684.88;;;12.65;100.00
7309;BME280;3695;53.330;9.876;2022-09-03T05:09:36;116626.53;;;12.64;100.00
7309;BME280;3695;53.330;9.876;2022-09-03T05:12:07;116902.09;;;12.70;100.00
7309;BME280;3695;53.330;9.876;2022-09-03T05:14:34;117324.22;;;12.82;100.00
7309;BME280;3695;53.330;9.876;2022-09-03T05:17:04;117177.13;;;12.78;100.00
7309;BME280;3695;53.330;9.876;2022-09-03T05:19:32;117701.44;;;12.90;100.00
7309;BME280;3695;53.330;9.876;2022-09-03T05:22:00;118145.59;;;13.01;100.00
7309;BME280;3695;53.330;9.876;2022-09-03T05:24:27;118639.38;;;13.13;100.00
7309;BME280;3695;53.330;9.876;2022-09-03T05:26:54;118019.44;;;12.98;100.00
7309;BME280;3695;53.330;9.876;2022-09-03T05:29:21;118014.59;;;12.96;100.00
7309;BME280;3695;53.330;9.876;2022-09-03T05:31:51;119163.31;;;13.24;100.00
7309;BME280;3695;53.330;9.876;2022-09-03T05:34:25;118037.06;;;12.93;100.00
7309;BME280;3695;53.330;9.876;2022-09-03T05:36:52;118443.22;;;13.05;100.00
7309;BME280;3695;53.330;9.876;2022-09-03T05:39:19;119486.31;;;13.31;100.00
7309;BME280;3695;53.330;9.876;2022-09-03T05:41:45;119654.69;;;13.35;100.00
7309;BME280;3695;53.330;9.876;2022-09-03T05:44:16;119939.25;;;13.40;100.00
7309;BME280;3695;53.330;9.876;2022-09-03T05:46:42;119976.59;;;13.40;100.00
7309;BME280;3695;53.330;9.876;2022-09-03T05:49:09;120075.13;;;13.40;100.00
7309;BME280;3695;53.330;9.876;2022-09-03T05:51:39;120640.03;;;13.57;100.00
7309;BME280;3695;53.330;9.876;2022-09-03T05:54:07;120734.13;;;13.58;100.00
7309;BME280;3695;53.330;9.876;2022-09-03T05:56:35;121088.72;;;13.65;100.00
7309;BME280;3695;53.330;9.876;2022-09-03T05:59:05;121878.00;;;13.82;100.00
7309;BME280;3695;53.330;9.876;2022-09-03T06:01:34;122072.13;;;13.84;100.00
7309;BME280;3695;53.330;9.876;2022-09-03T06:04:03;122336.69;;;13.92;100.00
7309;BME280;3695;53.330;9.876;2022-09-03T06:06:31;123011.09;;;14.06;100.00
7309;BME280;3695;53.330;9.876;2022-09-03T06:09:01;123080.97;;;14.08;100.00
7309;BME280;3695;53.330;9.876;2022-09-03T06:11:29;122790.81;;;14.01;100.00
7309;BME280;3695;53.330;9.876;2022-09-03T06:13:56;121334.72;;;13.62;100.00
7309;BME280;3695;53.330;9.876;2022-09-03T06:16:25;123155.34;;;14.09;100.00
7309;BME280;3695;53.330;9.876;2022-09-03T06:18:51;122944.97;;;14.04;100.00
7309;BME280;3695;53.330;9.876;2022-09-03T06:21:20;123634.13;;;14.21;100.00
7309;BME280;3695;53.330;9.876;2022-09-03T06:23:49;123768.50;;;14.25;100.00
7309;BME280;3695;53.330;9.876;2022-09-03T06:26:20;124746.84;;;14.47;100.00
7309;BME280;3695;53.330;9.876;2022-09-03T06:28:47;124389.28;;;14.36;100.00
7309;BME280;3695;53.330;9.876;2022-09-03T06:31:16;123602.97;;;14.16;100.00
7309;BME280;3695;53.330;9.876;2022-09-03T06:33:44;124178.69;;;14.31;100.00
7309;BME280;3695;53.330;9.876;2022-09-03T06:36:14;125100.03;;;14.55;100.00
7309;BME280;3695;53.330;9.876;2022-09-03T06:38:43;125587.00;;;14.66;100.00
7309;BME280;3695;53.330;9.876;2022-09-03T06:41:12;125522.41;;;14.64;100.00
7309;BME280;3695;53.330;9.876;2022-09-03T06:43:41;125215.75;;;14.57;100.00
7309;BME280;3695;53.330;9.876;2022-09-03T06:46:10;126257.41;;;14.85;100.00
7309;BME280;3695;53.330;9.876;2022-09-03T06:48:37;126572.94;;;14.90;100.00
7309;BME280;3695;53.330;9.876;2022-09-03T06:51:06;126635.50;;;14.91;100.00
7309;BME280;3695;53.330;9.876;2022-09-03T06:53:37;126382.44;;;14.83;100.00
7309;BME280;3695;53.330;9.876;2022-09-03T06:56:06;127120.81;;;15.04;100.00
7309;BME280;3695;53.330;9.876;2022-09-03T06:58:34;127666.94;;;15.17;100.00
7309;BME280;3695;53.330;9.876;2022-09-03T07:01:07;127031.25;;;14.98;100.00
7309;BME280;3695;53.330;9.876;2022-09-03T07:03:34;127940.94;;;15.23;100.00
7309;BME280;3695;53.330;9.876;2022-09-03T07:06:01;128267.53;;;15.26;100.00
7309;BME280;3695;53.330;9.876;2022-09-03T07:08:28;128285.94;;;15.30;100.00
7309;BME280;3695;53.330;9.876;2022-09-03T07:10:57;129076.69;;;15.49;100.00
7309;BME280;3695;53.330;9.876;2022-09-03T07:13:24;129529.63;;;15.62;100.00
7309;BME280;3695;53.330;9.876;2022-09-03T07:15:57;129249.78;;;15.54;100.00
7309;BME280;3695;53.330;9.876;2022-09-03T07:18:25;130111.66;;;15.77;100.00
7309;BME280;3695;53.330;9.876;2022-09-03T07:20:57;129954.44;;;15.70;100.00
7309;BME280;3695;53.330;9.876;2022-09-03T07:23:23;130481.09;;;15.84;100.00
7309;BME280;3695;53.330;9.876;2022-09-03T07:25:52;130515.25;;;15.84;100.00
7309;BME280;3695;53.330;9.876;2022-09-03T07:28:19;130370.06;;;15.78;100.00
7309;BME280;3695;53.330;9.876;2022-09-03T07:30:46;131186.47;;;16.03;100.00
7309;BME280;3695;53.330;9.876;2022-09-03T07:33:16;130739.94;;;15.89;100.00
7309;BME280;3695;53.330;9.876;2022-09-03T07:35:45;131876.94;;;16.23;100.00
7309;BME280;3695;53.330;9.876;2022-09-03T07:38:16;131818.00;;;16.20;100.00
7309;BME280;3695;53.330;9.876;2022-09-03T07:40:43;131842.91;;;16.17;100.00
7309;BME280;3695;53.330;9.876;2022-09-03T07:43:09;132689.38;;;16.43;100.00
7309;BME280;3695;53.330;9.876;2022-09-03T07:45:36;132453.78;;;16.37;100.00
7309;BME280;3695;53.330;9.876;2022-09-03T07:48:03;132165.97;;;16.26;100.00
7309;BME280;3695;53.330;9.876;2022-09-03T07:50:30;133070.19;;;16.53;100.00
7309;BME280;3695;53.330;9.876;2022-09-03T07:53:05;133411.94;;;16.64;100.00
7309;BME280;3695;53.330;9.876;2022-09-03T07:55:32;133500.31;;;16.64;100.00
7309;BME280;3695;53.330;9.876;2022-09-03T07:57:58;133372.78;;;16.60;100.00
7309;BME280;3695;53.330;9.876;2022-09-03T08:00:25;133552.22;;;16.65;100.00
7309;BME280;3695;53.330;9.876;2022-09-03T08:02:51;134376.09;;;16.89;100.00
7309;BME280;3695;53.330;9.876;2022-09-03T08:05:18;134898.59;;;16.99;100.00
7309;BME280;3695;53.330;9.876;2022-09-03T08:07:45;135347.88;;;17.13;100.00
7309;BME280;3695;53.330;9.876;2022-09-03T08:10:14;136644.28;;;17.50;100.00
7309;BME280;3695;53.330;9.876;2022-09-03T08:12:40;136123.41;;;17.32;100.00
7309;BME280;3695;53.330;9.876;2022-09-03T08:15:07;136699.03;;;17.48;100.00
7309;BME280;3695;53.330;9.876;2022-09-03T08:17:34;136740.56;;;17.48;100.00
7309;BME280;3695;53.330;9.876;2022-09-03T08:20:01;136938.38;;;17.51;100.00
7309;BME280;3695;53.330;9.876;2022-09-03T08:22:28;136928.94;;;17.51;100.00
7309;BME280;3695;53.330;9.876;2022-09-03T08:24:54;137372.50;;;17.63;100.00
7309;BME280;3695;53.330;9.876;2022-09-03T08:27:22;138001.09;;;17.81;100.00
7309;BME280;3695;53.330;9.876;2022-09-03T08:29:50;138926.78;;;18.07;100.00
7309;BME280;3695;53.330;9.876;2022-09-03T08:32:17;138733.84;;;17.99;100.00
7309;BME280;3695;53.330;9.876;2022-09-03T08:34:43;139085.00;;;18.09;100.00
7309;BME280;3695;53.330;9.876;2022-09-03T08:37:11;139506.78;;;18.20;100.00
7309;BME280;3695;53.330;9.876;2022-09-03T08:39:37;139398.25;;;18.15;100.00
7309;BME280;3695;53.330;9.876;2022-09-03T08:42:15;140433.31;;;18.45;100.00
7309;BME280;3695;53.330;9.876;2022-09-03T08:44:47;140330.59;;;18.39;100.00
7309;BME280;3695;53.330;9.876;2022-09-03T08:47:19;140233.03;;;18.34;100.00
7309;BME280;3695;53.330;9.876;2022-09-03T08:49:49;141358.88;;;18.67;100.00
7309;BME280;3695;53.330;9.876;2022-09-03T08:52:25;141307.47;;;18.64;100.00
7309;BME280;3695;53.330;9.876;2022-09-03T08:54:59;141247.69;;;18.61;100.00
7309;BME280;3695;53.330;9.876;2022-09-03T08:57:31;141558.84;;;18.67;100.00
7309;BME280;3695;53.330;9.876;2022-09-03T09:00:04;141937.69;;;18.77;100.00
7309;BME280;3695;53.330;9.876;2022-09-03T09:02:38;142761.34;;;19.01;100.00
7309;BME280;3695;53.330;9.876;2022-09-03T09:05:11;141786.56;;;18.67;100.00
7309;BME280;3695;53.330;9.876;2022-09-03T09:07:42;142492.00;;;18.94;100.00
7309;BME280;3695;53.330;9.876;2022-09-03T09:10:14;142657.88;;;18.96;100.00
7309;BME280;3695;53.330;9.876;2022-09-03T09:12:47;143179.22;;;19.12;100.00
7309;BME280;3695;53.330;9.876;2022-09-03T09:15:27;143287.22;;;19.13;100.00
7309;BME280;3695;53.330;9.876;2022-09-03T09:18:02;144289.69;;;19.44;100.00
7309;BME280;3695;53.330;9.876;2022-09-03T09:20:35;143951.22;;;19.28;100.00
7309;BME280;3695;53.330;9.876;2022-09-03T09:23:07;144358.50;;;19.43;100.00
7309;BME280;3695;53.330;9.876;2022-09-03T09:25:43;144561.63;;;19.46;100.00
7309;BME280;3695;53.330;9.876;2022-09-03T09:28:16;144948.13;;;19.55;100.00
7309;BME280;3695;53.330;9.876;2022-09-03T09:30:46;144308.84;;;19.35;100.00
7309;BME280;3695;53.330;9.876;2022-09-03T09:33:13;144895.63;;;19.54;100.00
7309;BME280;3695;53.330;9.876;2022-09-03T09:35:40;145601.72;;;19.74;100.00
7309;BME280;3695;53.330;9.876;2022-09-03T09:38:08;145501.44;;;19.71;100.00
7309;BME280;3695;53.330;9.876;2022-09-03T09:40:36;145780.41;;;19.77;100.00
7309;BME280;3695;53.330;9.876;2022-09-03T09:43:07;146138.38;;;19.88;100.00
7309;BME280;3695;53.330;9.876;2022-09-03T09:45:35;146744.28;;;20.07;100.00
7309;BME280;3695;53.330;9.876;2022-09-03T09:48:10;147217.66;;;20.17;100.00
7309;BME280;3695;53.330;9.876;2022-09-03T09:50:39;147313.78;;;20.21;100.00
7309;BME280;3695;53.330;9.876;2022-09-03T09:53:08;147859.44;;;20.35;100.00
7309;BME280;3695;53.330;9.876;2022-09-03T09:55:50;147464.00;;;20.22;100.00
7309;BME280;3695;53.330;9.876;2022-09-03T09:58:18;147943.97;;;20.37;100.00
7309;BME280;3695;53.330;9.876;2022-09-03T10:00:54;148745.56;;;20.59;100.00
7309;BME280;3695;53.330;9.876;2022-09-03T10:03:22;149474.41;;;20.75;100.00
7309;BME280;3695;53.330;9.876;2022-09-03T10:05:59;149294.69;;;20.66;100.00
7309;BME280;3695;53.330;9.876;2022-09-03T10:08:26;148435.56;;;20.39;100.00
7309;BME280;3695;53.330;9.876;2022-09-03T10:10:52;148154.06;;;20.30;100.00
7309;BME280;3695;53.330;9.876;2022-09-03T10:13:22;148513.34;;;20.40;100.00
7309;BME280;3695;53.330;9.876;2022-09-03T10:15:56;147405.72;;;20.05;100.00
7309;BME280;3695;53.330;9.876;2022-09-03T10:18:29;146695.50;;;19.85;100.00
7309;BME280;3695;53.330;9.876;2022-09-03T10:21:02;146832.19;;;19.88;100.00
7309;BME280;3695;53.330;9.876;2022-09-03T10:23:34;148479.16;;;20.42;100.00
7309;BME280;3695;53.330;9.876;2022-09-03T10:26:05;149099.72;;;20.60;100.00
7309;BME280;3695;53.330;9.876;2022-09-03T10:28:36;149787.72;;;20.83;100.00
7309;BME280;3695;53.330;9.876;2022-09-03T10:31:19;149700.22;;;20.81;100.00
7309;BME280;3695;53.330;9.876;2022-09-03T10:33:55;150451.06;;;21.05;100.00
7309;BME280;3695;53.330;9.876;2022-09-03T10:36:26;150636.72;;;21.10;100.00
7309;BME280;3695;53.330;9.876;2022-09-03T10:39:03;152102.06;;;21.57;100.00
7309;BME280;3695;53.330;9.876;2022-09-03T10:41:42;152387.28;;;21.62;100.00
7309;BME280;3695;53.330;9.876;2022-09-03T10:44:40;151415.88;;;21.31;100.00
7309;BME280;3695;53.330;9.876;2022-09-03T10:47:21;150797.31;;;21.11;100.00
7309;BME280;3695;53.330;9.876;2022-09-03T10:49:57;150657.25;;;21.07;100.00
7309;BME280;3695;53.330;9.876;2022-09-03T10:52:35;150481.53;;;21.01;100.00
7309;BME280;3695;53.330;9.876;2022-09-03T10:55:19;150459.84;;;20.99;100.00
7309;BME280;3695;53.330;9.876;2022-09-03T10:57:55;150679.31;;;21.08;100.00
7309;BME280;3695;53.330;9.876;2022-09-03T11:00:30;151172.22;;;21.23;100.00
7309;BME280;3695;53.330;9.876;2022-09-03T11:03:15;150867.78;;;21.13;100.00
7309;BME280;3695;53.330;9.876;2022-09-03T11:05:55;150903.19;;;21.16;100.00
7309;BME280;3695;53.330;9.876;2022-09-03T11:08:27;151742.91;;;21.46;100.00
7309;BME280;3695;53.330;9.876;2022-09-03T11:11:01;151779.91;;;21.49;100.00
7309;BME280;3695;53.330;9.876;2022-09-03T11:13:33;151466.88;;;21.39;100.00
7309;BME280;3695;53.330;9.876;2022-09-03T11:16:02;151433.59;;;21.38;100.00
7309;BME280;3695;53.330;9.876;2022-09-03T11:18:35;151311.47;;;21.34;100.00
7309;BME280;3695;53.330;9.876;2022-09-03T11:21:08;151755.38;;;21.51;100.00
7309;BME280;3695;53.330;9.876;2022-09-03T11:23:38;152776.56;;;21.86;100.00
7309;BME280;3695;53.330;9.876;2022-09-03T11:26:08;152871.19;;;21.88;100.00
7309;BME280;3695;53.330;9.876;2022-09-03T11:28:41;152912.34;;;21.91;100.00
7309;BME280;3695;53.330;9.876;2022-09-03T11:31:22;152461.56;;;21.77;100.00
7309;BME280;3695;53.330;9.876;2022-09-03T11:33:55;152434.84;;;21.77;100.00
7309;BME280;3695;53.330;9.876;2022-09-03T11:36:29;152460.41;;;21.81;100.00
7309;BME280;3695;53.330;9.876;2022-09-03T11:38:57;152449.19;;;21.81;100.00
7309;BME280;3695;53.330;9.876;2022-09-03T11:41:25;153080.03;;;22.03;100.00
7309;BME280;3695;53.330;9.876;2022-09-03T11:43:52;152155.44;;;21.75;100.00
7309;BME280;3695;53.330;9.876;2022-09-03T11:46:29;152187.25;;;21.77;100.00
7309;BME280;3695;53.330;9.876;2022-09-03T11:49:07;152911.97;;;22.03;100.00
7309;BME280;3695;53.330;9.876;2022-09-03T11:51:37;153663.69;;;22.30;100.00
7309;BME280;3695;53.330;9.876;2022-09-03T11:54:23;152413.25;;;21.89;100.00
7309;BME280;3695;53.330;9.876;2022-09-03T11:56:50;152752.59;;;22.02;100.00
7309;BME280;3695;53.330;9.876;2022-09-03T11:59:22;152832.72;;;22.06;100.00
7309;BME280;3695;53.330;9.876;2022-09-03T12:01:51;152762.69;;;22.06;100.00
7309;BME280;3695;53.330;9.876;2022-09-03T12:04:20;152508.59;;;21.98;100.00
7309;BME280;3695;53.330;9.876;2022-09-03T12:07:13;154114.31;;;22.53;100.00
7309;BME280;3695;53.330;9.876;2022-09-03T12:09:56;154062.28;;;22.54;100.00
7309;BME280;3695;53.330;9.876;2022-09-03T12:12:44;155316.25;;;22.98;100.00
7309;BME280;3695;53.330;9.876;2022-09-03T12:15:30;154103.97;;;22.60;100.00
7309;BME280;3695;53.330;9.876;2022-09-03T12:18:03;153942.41;;;22.56;100.00
7309;BME280;3695;53.330;9.876;2022-09-03T12:20:58;153833.19;;;22.51;100.00
7309;BME280;3695;53.330;9.876;2022-09-03T12:23:28;153686.13;;;22.50;100.00
7309;BME280;3695;53.330;9.876;2022-09-03T12:25:57;153979.75;;;22.63;100.00
7309;BME280;3695;53.330;9.876;2022-09-03T12:28:27;153951.16;;;22.66;98.96
7309;BME280;3695;53.330;9.876;2022-09-03T12:31:05;155923.91;;;23.33;100.00
7309;BME280;3695;53.330;9.876;2022-09-03T12:33:32;156188.34;;;23.43;97.23
7309;BME280;3695;53.330;9.876;2022-09-03T12:36:00;156550.53;;;23.56;98.15
7309;BME280;3695;53.330;9.876;2022-09-03T12:38:28;153594.16;;;22.58;99.83
7309;BME280;3695;53.330;9.876;2022-09-03T12:40:56;153266.75;;;22.46;100.00
7309;BME280;3695;53.330;9.876;2022-09-03T12:43:26;154294.41;;;22.83;99.78
7309;BME280;3695;53.330;9.876;2022-09-03T12:45:53;154271.94;;;22.83;98.42
7309;BME280;3695;53.330;9.876;2022-09-03T12:48:20;151844.41;;;22.05;100.00
7309;BME280;3695;53.330;9.876;2022-09-03T12:50:49;151697.19;;;22.00;100.00
7309;BME280;3695;53.330;9.876;2022-09-03T12:53:29;152878.59;;;22.41;100.00
7309;BME280;3695;53.330;9.876;2022-09-03T12:55:58;153160.34;;;22.51;100.00
7309;BME280;3695;53.330;9.876;2022-09-03T12:58:31;154592.56;;;23.01;100.00
7309;BME280;3695;53.330;9.876;2022-09-03T13:01:05;154408.16;;;22.98;96.90
7309;BME280;3695;53.330;9.876;2022-09-03T13:03:41;156202.81;;;23.59;98.81
7309;BME280;3695;53.330;9.876;2022-09-03T13:06:12;155969.47;;;23.53;98.94
7309;BME280;3695;53.330;9.876;2022-09-03T13:08:45;156697.06;;;23.78;97.76
7309;BME280;3695;53.330;9.876;2022-09-03T13:11:15;155752.59;;;23.49;92.86
7309;BME280;3695;53.330;9.876;2022-09-03T13:13:52;156151.22;;;23.63;96.39
7309;BME280;3695;53.330;9.876;2022-09-03T13:16:44;155881.66;;;23.56;91.94
7309;BME280;3695;53.330;9.876;2022-09-03T13:19:20;154959.06;;;23.28;91.99
7309;BME280;3695;53.330;9.876;2022-09-03T13:21:57;155153.00;;;23.38;91.53
7309;BME280;3695;53.330;9.876;2022-09-03T13:24:52;156245.16;;;23.75;91.61
7309;BME280;3695;53.330;9.876;2022-09-03T13:27:26;156334.13;;;23.79;91.88